createdAt,value
2023-05-05T00:02:11.404Z,82.92
2023-05-05T00:04:37.902Z,83.25
2023-05-05T00:07:04.437Z,83.04
2023-05-05T00:09:30.970Z,84.06
2023-05-05T00:11:57.442Z,84.54
2023-05-05T00:14:23.978Z,85.36
2023-05-05T00:16:50.517Z,83.73
2023-05-05T00:19:16.992Z,83.84
2023-05-05T00:21:43.536Z,83.24
2023-05-05T00:24:10.163Z,84.28
2023-05-05T00:26:36.635Z,84.70
2023-05-05T00:29:03.479Z,84.02
2023-05-05T00:31:29.938Z,83.81
2023-05-05T00:33:56.385Z,83.86
2023-05-05T00:36:22.937Z,84.06
2023-05-05T00:38:49.384Z,84.52
2023-05-05T00:41:15.954Z,86.05
2023-05-05T00:43:42.581Z,86.50
2023-05-05T00:46:29.566Z,86.17
2023-05-05T00:48:56.452Z,85.85
2023-05-05T00:51:23.265Z,85.76
2023-05-05T00:53:49.876Z,84.90
2023-05-05T00:56:21.887Z,86.57
2023-05-05T00:58:49.071Z,86.52
2023-05-05T01:01:16.487Z,87.21
2023-05-05T01:03:43.313Z,86.28
2023-05-05T01:06:34.822Z,87.41
2023-05-05T01:09:12.143Z,86.04
2023-05-05T01:11:42.753Z,86.27
2023-05-05T01:14:19.333Z,86.97
2023-05-05T01:17:20.190Z,87.46
2023-05-05T01:20:17.433Z,86.37
2023-05-05T01:22:47.229Z,88.38
2023-05-05T01:25:49.340Z,88.56
2023-05-05T01:28:31.473Z,88.05
2023-05-05T01:31:01.653Z,88.03
2023-05-05T01:33:29.477Z,88.79
2023-05-05T01:35:57.779Z,88.03
2023-05-05T01:38:31.895Z,88.74
2023-05-05T01:41:10.505Z,88.28
2023-05-05T01:43:37.012Z,89.40
2023-05-05T01:46:03.503Z,89.58
2023-05-05T01:48:30.064Z,89.44
2023-05-05T01:50:56.601Z,88.83
2023-05-05T01:53:23.267Z,88.07
2023-05-05T01:55:49.904Z,88.03
2023-05-05T01:58:16.864Z,87.89
2023-05-05T02:00:43.987Z,87.20
2023-05-05T02:03:11.593Z,88.68
2023-05-05T02:05:39.154Z,89.29
2023-05-05T02:08:05.769Z,89.57
2023-05-05T02:10:32.364Z,89.00
2023-05-05T02:12:59.820Z,90.50
2023-05-05T02:15:26.318Z,90.21
2023-05-05T02:17:53.107Z,89.46
2023-05-05T02:20:19.950Z,88.93
2023-05-05T02:22:46.555Z,89.05
2023-05-05T02:25:13.092Z,89.33
2023-05-05T02:27:41.654Z,89.68
2023-05-05T02:30:09.598Z,88.94
2023-05-05T02:32:49.707Z,90.49
2023-05-05T02:35:24.251Z,89.98
2023-05-05T02:37:51.573Z,90.37
2023-05-05T02:40:19.932Z,89.04
2023-05-05T02:42:46.587Z,89.39
2023-05-05T02:45:15.372Z,90.01
2023-05-05T02:47:41.912Z,89.98
2023-05-05T02:50:09.017Z,89.42
2023-05-05T02:52:35.703Z,88.90
2023-05-05T02:55:02.756Z,88.84
2023-05-05T02:57:37.746Z,89.36
2023-05-05T03:00:32.110Z,89.49
2023-05-05T03:03:17.739Z,89.65
2023-05-05T03:06:04.519Z,89.23
2023-05-05T03:08:46.973Z,89.80
2023-05-05T03:11:31.441Z,89.59
2023-05-05T03:14:10.822Z,90.10
2023-05-05T03:16:37.388Z,90.60
2023-05-05T03:19:04.206Z,91.24
2023-05-05T03:21:31.787Z,89.78
2023-05-05T03:23:58.661Z,89.98
2023-05-05T03:26:25.146Z,89.77
2023-05-05T03:28:51.742Z,89.77
2023-05-05T03:31:18.572Z,89.25
2023-05-05T03:33:45.077Z,88.78
2023-05-05T03:36:11.668Z,89.07
2023-05-05T03:38:38.150Z,88.60
2023-05-05T03:41:04.625Z,88.44
2023-05-05T03:43:31.132Z,88.71
2023-05-05T03:45:57.629Z,89.40
2023-05-05T03:48:24.235Z,89.53
2023-05-05T03:50:50.729Z,89.26
2023-05-05T03:53:17.246Z,89.27
2023-05-05T03:55:43.720Z,88.86
2023-05-05T03:58:11.081Z,90.10
2023-05-05T04:00:37.598Z,88.80
2023-05-05T04:03:04.282Z,89.24
2023-05-05T04:05:31.025Z,89.78
2023-05-05T04:07:58.288Z,89.96
2023-05-05T04:10:24.795Z,89.73
2023-05-05T04:12:51.331Z,90.68
2023-05-05T04:15:17.924Z,90.38
2023-05-05T04:17:44.448Z,89.42
2023-05-05T04:20:11.305Z,89.55
2023-05-05T04:22:37.873Z,90.04
2023-05-05T04:25:04.636Z,90.49
2023-05-05T04:27:31.395Z,90.77
2023-05-05T04:29:57.882Z,90.44
2023-05-05T04:32:24.446Z,89.62
2023-05-05T04:34:51.004Z,89.78
2023-05-05T04:37:17.463Z,89.25
2023-05-05T04:39:44.024Z,88.96
2023-05-05T04:42:10.674Z,88.33
2023-05-05T04:44:37.141Z,87.98
2023-05-05T04:47:04.056Z,87.44
2023-05-05T04:49:30.997Z,87.49
2023-05-05T04:51:57.467Z,87.91
2023-05-05T04:54:23.959Z,88.28
2023-05-05T04:56:50.513Z,87.74
2023-05-05T04:59:17.015Z,88.16
2023-05-05T05:01:43.539Z,87.97
2023-05-05T05:04:10.864Z,87.58
2023-05-05T05:06:37.328Z,86.48
2023-05-05T05:09:03.878Z,87.02
2023-05-05T05:11:30.528Z,86.99
2023-05-05T05:13:56.984Z,87.02
2023-05-05T05:16:24.892Z,86.99
2023-05-05T05:18:51.455Z,87.42
2023-05-05T05:21:17.889Z,87.17
2023-05-05T05:23:44.366Z,86.34
2023-05-05T05:26:11.018Z,84.91
2023-05-05T05:28:37.502Z,83.56
2023-05-05T05:31:04.753Z,83.97
2023-05-05T05:33:31.274Z,83.32
2023-05-05T05:35:57.909Z,83.19
2023-05-05T05:38:24.394Z,82.47
2023-05-05T05:40:50.920Z,81.87
2023-05-05T05:43:17.412Z,83.33
2023-05-05T05:45:43.891Z,82.44
2023-05-05T05:48:10.642Z,83.33
2023-05-05T05:50:37.308Z,85.81
2023-05-05T05:53:03.866Z,86.11
2023-05-05T05:55:30.432Z,85.09
2023-05-05T05:57:56.951Z,84.79
2023-05-05T06:00:23.639Z,84.45
2023-05-05T06:02:51.601Z,85.54
2023-05-05T06:05:18.165Z,85.88
2023-05-05T06:07:44.653Z,84.91
2023-05-05T06:10:22.963Z,84.46
2023-05-05T06:12:52.890Z,85.21
2023-05-05T06:15:19.439Z,84.99
2023-05-05T06:17:46.059Z,84.74
2023-05-05T06:20:13.842Z,82.74
2023-05-05T06:22:40.735Z,80.33
2023-05-05T06:25:07.503Z,78.03
2023-05-05T06:27:33.961Z,75.08
2023-05-05T06:30:00.716Z,74.68
2023-05-05T06:32:27.238Z,73.52
2023-05-05T06:34:53.727Z,72.76
2023-05-05T06:37:20.529Z,71.15
2023-05-05T06:39:47.133Z,69.93
2023-05-05T06:42:13.664Z,68.77
2023-05-05T06:44:40.251Z,67.60
2023-05-05T06:47:06.907Z,65.21
2023-05-05T06:49:33.738Z,63.86
2023-05-05T06:52:00.403Z,64.14
2023-05-05T06:54:26.867Z,62.70
2023-05-05T06:56:53.328Z,65.07
2023-05-05T06:59:19.935Z,61.63
2023-05-05T07:01:46.437Z,61.60
2023-05-05T07:04:13.023Z,61.95
2023-05-05T07:06:39.804Z,59.30
2023-05-05T07:09:06.608Z,60.08
2023-05-05T07:11:33.075Z,61.10
2023-05-05T07:13:59.597Z,59.66
2023-05-05T07:16:27.126Z,61.39
2023-05-05T07:18:53.642Z,59.88
2023-05-05T07:21:20.411Z,59.47
2023-05-05T07:23:47.695Z,59.95
2023-05-05T07:26:14.830Z,60.09
2023-05-05T07:28:43.034Z,61.97
2023-05-05T07:31:09.606Z,61.11
2023-05-05T07:33:36.210Z,60.74
2023-05-05T07:36:02.828Z,59.16
2023-05-05T07:38:29.309Z,59.38
2023-05-05T07:40:55.874Z,60.20
2023-05-05T07:43:22.413Z,56.68
2023-05-05T07:45:48.979Z,58.15
2023-05-05T07:48:15.509Z,58.66
2023-05-05T07:50:42.190Z,59.02
2023-05-05T07:53:14.648Z,60.45
2023-05-05T07:55:41.857Z,61.57
2023-05-05T07:58:08.569Z,60.24
2023-05-05T08:00:35.512Z,61.78
2023-05-05T08:03:02.085Z,59.17
2023-05-05T08:05:28.677Z,59.89
2023-05-05T08:07:55.135Z,60.70
2023-05-05T08:10:24.834Z,59.98
2023-05-05T08:12:51.496Z,60.92
2023-05-05T08:15:18.079Z,60.58
2023-05-05T08:17:48.749Z,57.94
2023-05-05T08:20:16.472Z,58.30
2023-05-05T08:22:43.063Z,57.96
2023-05-05T08:25:11.040Z,59.74
2023-05-05T08:27:38.729Z,59.07
2023-05-05T08:30:06.671Z,56.71
2023-05-05T08:32:33.214Z,59.05
2023-05-05T08:35:01.517Z,57.49
2023-05-05T08:37:27.971Z,58.85
2023-05-05T08:39:56.485Z,57.56
2023-05-05T08:42:36.042Z,58.26
2023-05-05T08:45:05.625Z,58.78
2023-05-05T08:47:32.506Z,58.09
2023-05-05T08:49:58.979Z,58.13
2023-05-05T08:52:25.451Z,58.32
2023-05-05T08:54:57.792Z,58.75
2023-05-05T08:57:28.466Z,60.55
2023-05-05T08:59:55.025Z,56.34
2023-05-05T09:02:23.937Z,58.69
2023-05-05T09:04:51.807Z,58.58
2023-05-05T09:07:18.255Z,56.63
2023-05-05T09:09:44.741Z,58.12
2023-05-05T09:12:11.226Z,60.06
2023-05-05T09:14:37.672Z,59.95
2023-05-05T09:17:04.383Z,57.82
2023-05-05T09:19:30.931Z,56.45
2023-05-05T09:21:57.510Z,58.23
2023-05-05T09:24:24.067Z,56.61
2023-05-05T09:26:51.809Z,58.15
2023-05-05T09:29:21.799Z,58.32
2023-05-05T09:32:09.068Z,59.46
2023-05-05T09:34:36.055Z,59.01
2023-05-05T09:37:03.230Z,55.85
2023-05-05T09:39:29.794Z,56.75
2023-05-05T09:41:56.294Z,53.33
2023-05-05T09:44:36.093Z,55.89
2023-05-05T09:47:05.252Z,54.97
2023-05-05T09:49:33.822Z,57.47
2023-05-05T09:52:00.354Z,57.25
2023-05-05T09:54:30.003Z,56.48
2023-05-05T09:56:56.903Z,55.11
2023-05-05T09:59:23.619Z,54.33
2023-05-05T10:01:50.779Z,57.60
2023-05-05T10:04:24.389Z,58.53
2023-05-05T10:06:51.152Z,55.52
2023-05-05T10:09:17.635Z,57.31
2023-05-05T10:11:46.257Z,54.87
2023-05-05T10:14:16.202Z,56.76
2023-05-05T10:16:50.866Z,58.49
2023-05-05T10:19:21.598Z,57.43
2023-05-05T10:21:53.154Z,58.48
2023-05-05T10:24:22.768Z,55.48
2023-05-05T10:26:49.271Z,54.05
2023-05-05T10:29:39.356Z,51.64
2023-05-05T10:32:37.079Z,55.00
2023-05-05T10:35:03.113Z,55.23
2023-05-05T10:37:29.850Z,51.49
2023-05-05T10:39:59.441Z,53.36
2023-05-05T10:42:26.021Z,53.62
2023-05-05T10:44:53.439Z,54.20
2023-05-05T10:47:20.272Z,55.92
2023-05-05T10:49:57.381Z,51.93
2023-05-05T10:52:41.187Z,51.02
2023-05-05T10:55:12.440Z,52.47
2023-05-05T10:57:43.692Z,53.82
2023-05-05T11:00:10.922Z,52.08
2023-05-05T11:02:37.526Z,55.00
2023-05-05T11:05:17.984Z,56.67
2023-05-05T11:07:45.968Z,51.69
2023-05-05T11:10:13.496Z,54.07
2023-05-05T11:12:52.322Z,53.14
2023-05-05T11:15:28.055Z,52.79
2023-05-05T11:17:58.127Z,52.42
2023-05-05T11:20:40.037Z,52.46
2023-05-05T11:23:06.586Z,51.39
2023-05-05T11:25:36.473Z,52.12
2023-05-05T11:28:09.742Z,50.60
2023-05-05T11:30:36.684Z,50.08
2023-05-05T11:33:26.081Z,51.12
2023-05-05T11:35:58.322Z,52.15
2023-05-05T11:38:43.431Z,50.95
2023-05-05T11:41:09.753Z,48.58
2023-05-05T11:43:36.547Z,52.77
2023-05-05T11:46:12.876Z,49.94
2023-05-05T11:48:49.196Z,48.19
2023-05-05T11:51:16.502Z,53.06
2023-05-05T11:53:43.908Z,48.67
2023-05-05T11:56:11.031Z,55.11
2023-05-05T11:58:37.836Z,47.01
2023-05-05T12:01:08.104Z,46.15
2023-05-05T12:03:37.428Z,48.90
2023-05-05T12:06:07.680Z,47.32
2023-05-05T12:08:37.863Z,46.03
2023-05-05T12:11:10.234Z,48.29
2023-05-05T12:13:36.746Z,48.09
2023-05-05T12:16:10.056Z,46.61
2023-05-05T12:18:36.786Z,45.45
2023-05-05T12:21:18.752Z,47.71
2023-05-05T12:23:45.452Z,48.89
2023-05-05T12:26:32.146Z,47.56
2023-05-05T12:28:59.170Z,47.97
2023-05-05T12:31:34.823Z,48.60
2023-05-05T12:34:02.531Z,44.80
2023-05-05T12:36:30.570Z,48.98
2023-05-05T12:38:57.200Z,44.29
2023-05-05T12:41:23.744Z,45.38
2023-05-05T12:43:54.976Z,43.93
2023-05-05T12:46:22.171Z,47.76
2023-05-05T12:49:06.545Z,44.86
2023-05-05T12:51:33.678Z,42.55
2023-05-05T12:54:07.528Z,44.61
2023-05-05T12:56:34.818Z,43.89
2023-05-05T12:59:11.809Z,46.22
2023-05-05T13:02:00.123Z,48.46
2023-05-05T13:04:27.426Z,44.81
2023-05-05T13:07:14.063Z,40.47
2023-05-05T13:09:40.708Z,44.44
2023-05-05T13:12:11.024Z,45.11
2023-05-05T13:14:37.917Z,45.28
2023-05-05T13:17:04.515Z,47.21
2023-05-05T13:19:31.063Z,48.04
2023-05-05T13:21:57.983Z,48.85
2023-05-05T13:24:37.886Z,53.67
2023-05-05T13:27:09.303Z,51.07
2023-05-05T13:29:35.925Z,51.28
2023-05-05T13:32:02.415Z,49.77
2023-05-05T13:34:28.923Z,49.75
2023-05-05T13:36:55.875Z,51.83
2023-05-05T13:39:22.362Z,51.98
2023-05-05T13:41:48.849Z,51.15
2023-05-05T13:44:15.577Z,52.05
2023-05-05T13:46:42.677Z,51.36
2023-05-05T13:49:09.307Z,54.30
2023-05-05T13:51:37.076Z,55.38
2023-05-05T13:54:03.916Z,54.36
2023-05-05T13:56:30.480Z,55.27
2023-05-05T13:58:57.266Z,56.19
2023-05-05T14:01:23.819Z,54.41
2023-05-05T14:03:50.509Z,52.25
2023-05-05T14:06:17.105Z,51.30
2023-05-05T14:08:43.608Z,50.44
2023-05-05T14:11:10.174Z,48.81
2023-05-05T14:13:36.739Z,51.17
2023-05-05T14:16:03.230Z,49.10
2023-05-05T14:18:29.744Z,54.47
2023-05-05T14:20:56.421Z,56.53
2023-05-05T14:23:22.899Z,58.33
2023-05-05T14:25:49.428Z,58.12
2023-05-05T14:28:16.161Z,58.48
2023-05-05T14:30:42.696Z,57.15
2023-05-05T14:33:09.180Z,54.34
2023-05-05T14:35:35.738Z,53.96
2023-05-05T14:38:02.234Z,54.47
2023-05-05T14:40:30.204Z,53.21
2023-05-05T14:42:57.709Z,51.42
2023-05-05T14:45:24.254Z,51.48
2023-05-05T14:47:50.883Z,52.19
2023-05-05T14:50:17.389Z,51.27
2023-05-05T14:52:44.462Z,53.25
2023-05-05T14:55:11.506Z,54.09
2023-05-05T14:57:38.963Z,52.84
2023-05-05T15:00:06.980Z,52.34
2023-05-05T15:02:33.735Z,52.85
2023-05-05T15:05:00.372Z,52.54
2023-05-05T15:07:28.510Z,53.45
2023-05-05T15:09:56.471Z,53.91
2023-05-05T15:12:23.171Z,54.94
2023-05-05T15:14:49.644Z,54.92
2023-05-05T15:17:16.089Z,55.34
2023-05-05T15:19:42.627Z,55.54
2023-05-05T15:22:09.192Z,56.22
2023-05-05T15:24:35.731Z,55.63
2023-05-05T15:27:02.875Z,56.64
2023-05-05T15:29:29.359Z,56.99
2023-05-05T15:31:55.964Z,56.79
2023-05-05T15:34:22.568Z,57.36
2023-05-05T15:36:49.058Z,57.24
2023-05-05T15:39:15.654Z,57.02
2023-05-05T15:41:42.370Z,57.54
2023-05-05T15:44:11.856Z,56.34
2023-05-05T15:46:39.157Z,55.59
2023-05-05T15:49:06.084Z,55.83
2023-05-05T15:51:32.663Z,56.90
2023-05-05T15:53:59.558Z,57.10
2023-05-05T15:56:27.563Z,56.86
2023-05-05T15:58:54.323Z,57.17
2023-05-05T16:01:21.047Z,58.05
2023-05-05T16:03:47.640Z,58.20
2023-05-05T16:06:14.163Z,57.60
2023-05-05T16:08:40.760Z,58.25
2023-05-05T16:11:07.291Z,58.70
2023-05-05T16:13:33.832Z,58.69
2023-05-05T16:16:00.308Z,58.77
2023-05-05T16:18:26.880Z,58.90
2023-05-05T16:20:53.359Z,59.49
2023-05-05T16:23:19.804Z,58.59
2023-05-05T16:25:46.409Z,57.11
2023-05-05T16:28:12.944Z,57.37
2023-05-05T16:30:39.888Z,56.08
2023-05-05T16:33:06.808Z,57.17
2023-05-05T16:35:33.396Z,56.21
2023-05-05T16:37:59.865Z,56.98
2023-05-05T16:40:26.403Z,57.01
2023-05-05T16:42:52.910Z,56.97
2023-05-05T16:45:19.393Z,57.65
2023-05-05T16:47:46.237Z,58.21
2023-05-05T16:50:12.848Z,58.74
2023-05-05T16:52:39.305Z,58.33
2023-05-05T16:55:06.260Z,59.85
2023-05-05T16:57:33.102Z,59.34
2023-05-05T16:59:59.698Z,59.63
2023-05-05T17:02:26.376Z,60.37
2023-05-05T17:04:52.979Z,60.58
2023-05-05T17:07:19.696Z,59.91
2023-05-05T17:09:46.210Z,60.83
2023-05-05T17:12:12.678Z,61.62
2023-05-05T17:14:39.589Z,62.28
2023-05-05T17:17:06.198Z,62.11
2023-05-05T17:19:32.734Z,62.51
2023-05-05T17:21:59.269Z,62.98
2023-05-05T17:24:25.810Z,63.13
2023-05-05T17:26:52.404Z,62.97
2023-05-05T17:29:20.219Z,62.75
2023-05-05T17:31:46.863Z,62.27
2023-05-05T17:34:13.434Z,62.44
2023-05-05T17:36:39.911Z,62.48
2023-05-05T17:39:06.812Z,63.48
2023-05-05T17:41:33.319Z,66.53
2023-05-05T17:43:59.789Z,68.00
2023-05-05T17:46:26.462Z,67.76
2023-05-05T17:48:53.056Z,69.33
2023-05-05T17:51:19.632Z,69.06
2023-05-05T17:53:46.205Z,69.55
2023-05-05T17:56:12.831Z,69.79
2023-05-05T17:58:39.298Z,69.87
2023-05-05T18:01:06.371Z,69.69
2023-05-05T18:03:33.103Z,69.55
2023-05-05T18:05:59.812Z,69.94
2023-05-05T18:08:26.962Z,71.10
2023-05-05T18:10:54.118Z,71.28
2023-05-05T18:13:21.396Z,71.34
2023-05-05T18:15:48.102Z,73.32
2023-05-05T18:18:14.699Z,73.54
2023-05-05T18:20:41.211Z,74.24
2023-05-05T18:23:07.732Z,74.43
2023-05-05T18:25:34.188Z,74.75
2023-05-05T18:28:00.664Z,74.41
2023-05-05T18:30:27.313Z,75.08
2023-05-05T18:32:53.833Z,75.16
2023-05-05T18:35:21.325Z,75.71
2023-05-05T18:37:47.910Z,75.89
2023-05-05T18:40:14.430Z,76.59
2023-05-05T18:42:41.684Z,76.72
2023-05-05T18:45:10.548Z,77.32
2023-05-05T18:47:37.519Z,78.72
2023-05-05T18:50:04.494Z,79.77
2023-05-05T18:52:31.075Z,79.76
2023-05-05T18:54:57.521Z,79.92
2023-05-05T18:57:24.079Z,80.63
2023-05-05T18:59:50.582Z,79.96
2023-05-05T19:02:17.831Z,80.80
2023-05-05T19:04:44.411Z,80.14
2023-05-05T19:07:14.471Z,80.32
2023-05-05T19:09:47.573Z,81.86
2023-05-05T19:12:14.355Z,81.71
2023-05-05T19:14:41.004Z,82.22
2023-05-05T19:17:07.488Z,81.76
2023-05-05T19:19:34.083Z,81.16
2023-05-05T19:22:02.952Z,81.36
2023-05-05T19:24:30.266Z,81.50
2023-05-05T19:26:56.905Z,82.15
2023-05-05T19:29:23.387Z,82.39
2023-05-05T19:31:49.884Z,81.96
2023-05-05T19:34:16.402Z,79.96
2023-05-05T19:36:42.893Z,79.50
2023-05-05T19:39:09.352Z,79.75
2023-05-05T19:41:35.871Z,79.80
2023-05-05T19:44:02.939Z,78.07
2023-05-05T19:46:29.557Z,77.22
2023-05-05T19:48:56.229Z,77.08
2023-05-05T19:51:22.837Z,78.79
2023-05-05T19:53:50.134Z,81.70
2023-05-05T19:56:16.959Z,82.43
2023-05-05T19:58:56.306Z,82.26
2023-05-05T20:01:22.962Z,82.01
2023-05-05T20:03:49.780Z,82.31
2023-05-05T20:06:16.356Z,81.37
2023-05-05T20:08:43.227Z,80.89
2023-05-05T20:11:09.690Z,81.04
2023-05-05T20:13:38.110Z,83.90
2023-05-05T20:16:06.006Z,85.42
2023-05-05T20:18:32.641Z,86.92
2023-05-05T20:20:59.285Z,87.66
2023-05-05T20:23:26.474Z,85.64
2023-05-05T20:25:53.437Z,86.88
2023-05-05T20:28:19.950Z,87.92
2023-05-05T20:30:46.605Z,86.90
2023-05-05T20:33:13.100Z,85.42
2023-05-05T20:35:39.620Z,87.61
2023-05-05T20:38:06.150Z,89.00
2023-05-05T20:40:33.554Z,89.04
2023-05-05T20:43:00.221Z,90.49
2023-05-05T20:45:26.786Z,88.68
2023-05-05T20:47:53.352Z,88.22
2023-05-05T20:50:22.634Z,88.79
2023-05-05T20:52:49.605Z,89.54
2023-05-05T20:55:16.199Z,90.51
2023-05-05T20:57:42.692Z,91.12
2023-05-05T21:00:09.675Z,91.85
2023-05-05T21:02:37.065Z,92.93
2023-05-05T21:05:04.208Z,94.30
2023-05-05T21:07:33.153Z,94.42
2023-05-05T21:10:00.720Z,95.82
2023-05-05T21:12:27.963Z,96.42
2023-05-05T21:14:56.944Z,96.68
2023-05-05T21:17:23.433Z,96.75
2023-05-05T21:19:49.949Z,97.00
2023-05-05T21:22:16.436Z,96.66
2023-05-05T21:24:42.903Z,97.47
2023-05-05T21:27:09.408Z,98.40
2023-05-05T21:29:37.791Z,99.38
2023-05-05T21:32:08.002Z,100.00
2023-05-05T21:34:34.548Z,100.00
2023-05-05T21:37:01.054Z,100.00
2023-05-05T21:39:28.221Z,100.00
2023-05-05T21:41:54.706Z,100.00
2023-05-05T21:44:21.283Z,100.00
2023-05-05T21:46:47.985Z,100.00
2023-05-05T21:49:15.180Z,100.00
2023-05-05T21:51:43.377Z,100.00
2023-05-05T21:54:09.946Z,100.00
2023-05-05T21:56:36.741Z,100.00
2023-05-05T21:59:03.929Z,100.00
2023-05-05T22:01:30.461Z,100.00
2023-05-05T22:03:57.026Z,100.00
2023-05-05T22:06:23.605Z,100.00
2023-05-05T22:08:50.250Z,100.00
2023-05-05T22:11:18.353Z,100.00
2023-05-05T22:13:46.192Z,100.00
2023-05-05T22:16:12.820Z,100.00
2023-05-05T22:18:39.355Z,100.00
2023-05-05T22:21:06.095Z,100.00
2023-05-05T22:23:32.633Z,100.00
2023-05-05T22:25:59.084Z,100.00
2023-05-05T22:28:26.780Z,100.00
2023-05-05T22:30:53.251Z,100.00
2023-05-05T22:33:19.729Z,100.00
2023-05-05T22:35:46.243Z,100.00
2023-05-05T22:38:12.722Z,100.00
2023-05-05T22:40:39.199Z,100.00
2023-05-05T22:43:05.741Z,100.00
2023-05-05T22:45:32.401Z,100.00
2023-05-05T22:47:58.997Z,100.00
2023-05-05T22:50:25.687Z,100.00
2023-05-05T22:52:52.192Z,100.00
2023-05-05T22:55:18.698Z,100.00
2023-05-05T22:57:45.501Z,100.00
2023-05-05T23:00:12.435Z,100.00
2023-05-05T23:02:38.986Z,100.00
2023-05-05T23:05:05.960Z,100.00
2023-05-05T23:07:32.473Z,100.00
2023-05-05T23:09:58.944Z,100.00
2023-05-05T23:12:25.591Z,100.00
2023-05-05T23:14:52.408Z,100.00
2023-05-05T23:17:19.531Z,100.00
2023-05-05T23:19:48.933Z,100.00
2023-05-05T23:22:15.600Z,100.00
2023-05-05T23:24:42.103Z,100.00
2023-05-05T23:27:08.652Z,100.00
2023-05-05T23:32:10.403Z,100.00
2023-05-05T23:34:36.858Z,100.00
2023-05-05T23:37:05.396Z,100.00
2023-05-05T23:39:34.245Z,100.00
2023-05-05T23:42:00.684Z,100.00
2023-05-05T23:44:27.653Z,100.00
2023-05-05T23:46:54.496Z,100.00
2023-05-05T23:49:21.225Z,100.00
2023-05-05T23:51:47.685Z,100.00
2023-05-05T23:54:14.243Z,100.00
2023-05-05T23:56:41.094Z,100.00
2023-05-05T23:59:07.594Z,100.00
